createdAt,value
2023-04-27T00:00:19.318Z,13.05
2023-04-27T00:02:49.029Z,13.50
2023-04-27T00:05:18.278Z,17.50
2023-04-27T00:07:46.963Z,12.45
2023-04-27T00:10:15.881Z,15.73
2023-04-27T00:12:47.063Z,16.25
2023-04-27T00:15:16.372Z,15.45
2023-04-27T00:17:45.125Z,15.25
2023-04-27T00:20:13.744Z,14.70
2023-04-27T00:22:42.559Z,13.98
2023-04-27T00:25:12.430Z,15.50
2023-04-27T00:27:41.399Z,10.77
2023-04-27T00:30:12.914Z,12.00
2023-04-27T00:32:42.743Z,14.38
2023-04-27T00:35:12.066Z,15.88
2023-04-27T00:37:41.090Z,14.05
2023-04-27T00:40:11.062Z,18.23
2023-04-27T00:42:39.875Z,14.60
2023-04-27T00:45:13.873Z,13.93
2023-04-27T00:47:43.709Z,15.05
2023-04-27T00:50:12.567Z,10.60
2023-04-27T00:52:42.256Z,10.75
2023-04-27T00:55:16.784Z,13.02
2023-04-27T00:57:47.544Z,11.50
2023-04-27T01:00:17.941Z,12.30
2023-04-27T01:02:49.565Z,13.50
2023-04-27T01:05:18.464Z,12.00
2023-04-27T01:07:47.085Z,15.00
2023-04-27T01:10:17.768Z,11.50
2023-04-27T01:12:46.266Z,19.52
2023-04-27T01:15:18.050Z,15.93
2023-04-27T01:17:48.800Z,11.93
2023-04-27T01:20:17.779Z,16.08
2023-04-27T01:22:46.689Z,16.23
2023-04-27T01:25:17.850Z,12.93
2023-04-27T01:27:49.192Z,13.70
2023-04-27T01:30:17.919Z,14.50
2023-04-27T01:32:46.352Z,13.57
2023-04-27T01:35:14.701Z,12.02
2023-04-27T01:37:45.223Z,11.77
2023-04-27T01:40:15.229Z,16.70
2023-04-27T01:42:46.844Z,13.73
2023-04-27T01:45:15.620Z,15.75
2023-04-27T01:47:44.337Z,15.40
2023-04-27T01:50:13.103Z,14.75
2023-04-27T01:52:41.794Z,14.32
2023-04-27T01:55:11.551Z,17.50
2023-04-27T01:57:40.979Z,14.35
2023-04-27T02:00:15.115Z,18.48
2023-04-27T02:02:45.819Z,12.48
2023-04-27T02:05:14.504Z,16.25
2023-04-27T02:07:45.385Z,13.82
2023-04-27T02:10:15.899Z,11.93
2023-04-27T02:12:44.326Z,13.13
2023-04-27T02:15:14.099Z,15.77
2023-04-27T02:17:44.433Z,13.77
2023-04-27T02:20:14.982Z,14.90
2023-04-27T02:22:44.630Z,12.68
2023-04-27T02:25:13.638Z,16.55
2023-04-27T02:27:43.391Z,15.45
2023-04-27T02:30:15.027Z,14.75
2023-04-27T02:32:44.469Z,15.50
2023-04-27T02:35:13.239Z,13.48
2023-04-27T02:37:42.098Z,13.82
2023-04-27T02:40:14.033Z,15.90
2023-04-27T02:42:42.629Z,16.92
2023-04-27T02:45:11.992Z,16.23
2023-04-27T02:47:42.393Z,16.13
2023-04-27T02:50:14.036Z,18.58
2023-04-27T02:52:44.398Z,14.60
2023-04-27T02:55:13.750Z,15.02
2023-04-27T02:57:42.412Z,21.70
2023-04-27T03:00:12.431Z,15.82
2023-04-27T03:02:42.419Z,17.20
2023-04-27T03:05:11.305Z,15.30
2023-04-27T03:07:39.869Z,18.10
2023-04-27T03:10:11.358Z,17.20
2023-04-27T03:12:39.942Z,17.30
2023-04-27T03:15:10.449Z,20.27
2023-04-27T03:17:39.220Z,15.98
2023-04-27T03:20:12.994Z,23.88
2023-04-27T03:22:41.786Z,15.98
2023-04-27T03:25:10.928Z,15.43
2023-04-27T03:27:40.485Z,18.00
2023-04-27T03:30:10.527Z,21.25
2023-04-27T03:32:40.004Z,15.98
2023-04-27T03:35:16.167Z,17.00
2023-04-27T03:37:51.554Z,14.85
2023-04-27T03:40:19.970Z,11.77
2023-04-27T03:42:51.200Z,19.98
2023-04-27T03:45:22.480Z,13.20
2023-04-27T03:47:51.297Z,16.50
2023-04-27T03:50:21.164Z,17.02
2023-04-27T03:52:50.507Z,12.10
2023-04-27T03:55:21.414Z,11.25
2023-04-27T03:57:51.459Z,14.85
2023-04-27T04:00:20.108Z,11.15
2023-04-27T04:02:48.846Z,12.52
2023-04-27T04:05:17.618Z,16.85
2023-04-27T04:07:48.079Z,10.27
2023-04-27T04:10:17.508Z,11.48
2023-04-27T04:12:46.249Z,14.55
2023-04-27T04:15:17.286Z,12.80
2023-04-27T04:17:47.542Z,13.23
2023-04-27T04:20:17.619Z,11.18
2023-04-27T04:22:47.434Z,14.23
2023-04-27T04:25:15.990Z,18.80
2023-04-27T04:27:44.994Z,17.75
2023-04-27T04:30:14.277Z,16.77
2023-04-27T04:32:45.458Z,20.02
2023-04-27T04:35:16.441Z,18.55
2023-04-27T04:37:47.122Z,22.85
2023-04-27T04:40:16.172Z,20.65
2023-04-27T04:42:44.398Z,26.17
2023-04-27T04:45:14.268Z,27.30
2023-04-27T04:47:42.600Z,28.67
2023-04-27T04:50:13.351Z,29.48
2023-04-27T04:52:43.289Z,27.98
2023-04-27T04:55:15.799Z,27.52
2023-04-27T04:57:44.813Z,25.75
2023-04-27T05:00:19.729Z,28.80
2023-04-27T05:02:49.391Z,32.17
2023-04-27T05:05:19.578Z,28.98
2023-04-27T05:07:47.910Z,33.67
2023-04-27T05:10:17.889Z,36.28
2023-04-27T05:12:46.343Z,36.35
2023-04-27T05:15:16.172Z,39.13
2023-04-27T05:17:44.499Z,45.15
2023-04-27T05:20:13.583Z,47.25
2023-04-27T05:22:42.170Z,39.45
2023-04-27T05:25:11.485Z,40.85
2023-04-27T05:27:41.473Z,44.42
2023-04-27T05:30:11.369Z,41.60
2023-04-27T05:32:41.031Z,45.72
2023-04-27T05:35:10.096Z,47.35
2023-04-27T05:37:38.843Z,41.65
2023-04-27T05:40:11.338Z,44.30
2023-04-27T05:42:41.485Z,44.17
2023-04-27T05:45:11.175Z,49.55
2023-04-27T05:47:40.988Z,48.80
2023-04-27T05:50:10.409Z,40.70
2023-04-27T05:52:39.495Z,39.55
2023-04-27T05:55:09.209Z,43.53
2023-04-27T05:57:37.817Z,48.85
2023-04-27T06:00:12.786Z,42.63
2023-04-27T06:02:42.676Z,40.55
2023-04-27T06:05:12.029Z,41.15
2023-04-27T06:07:41.850Z,42.88
2023-04-27T06:10:12.521Z,41.35
2023-04-27T06:12:41.378Z,44.88
2023-04-27T06:15:12.408Z,42.10
2023-04-27T06:17:41.439Z,39.08
2023-04-27T06:20:10.617Z,42.20
2023-04-27T06:22:39.582Z,40.33
2023-04-27T06:25:09.085Z,42.90
2023-04-27T06:27:37.715Z,46.63
2023-04-27T06:30:07.431Z,41.13
2023-04-27T06:32:38.350Z,50.08
2023-04-27T06:35:07.554Z,44.20
2023-04-27T06:37:36.011Z,54.58
2023-04-27T06:40:05.212Z,51.70
2023-04-27T06:42:34.997Z,49.55
2023-04-27T06:45:04.384Z,43.35
2023-04-27T06:47:32.952Z,49.25
2023-04-27T06:50:04.188Z,43.35
2023-04-27T06:52:34.429Z,36.30
2023-04-27T06:55:02.946Z,43.13
2023-04-27T06:57:32.746Z,34.40
2023-04-27T07:00:01.622Z,35.95
2023-04-27T07:02:30.181Z,35.95
2023-04-27T07:04:58.591Z,37.15
2023-04-27T07:07:28.597Z,37.63
2023-04-27T07:09:56.979Z,38.05
2023-04-27T07:12:25.443Z,36.58
2023-04-27T07:14:53.836Z,33.47
2023-04-27T07:17:22.617Z,33.28
2023-04-27T07:19:51.948Z,31.75
2023-04-27T07:22:20.687Z,35.25
2023-04-27T07:24:50.753Z,37.58
2023-04-27T07:27:19.310Z,35.35
2023-04-27T07:29:48.677Z,34.40
2023-04-27T07:32:17.445Z,33.63
2023-04-27T07:34:53.576Z,29.60
2023-04-27T07:37:22.832Z,40.30
2023-04-27T07:39:53.636Z,34.03
2023-04-27T07:42:25.284Z,33.67
2023-04-27T07:44:54.632Z,34.95
2023-04-27T07:47:24.286Z,39.00
2023-04-27T07:49:53.310Z,34.13
2023-04-27T07:52:22.194Z,39.13
2023-04-27T07:54:51.414Z,42.70
2023-04-27T07:57:21.761Z,36.35
2023-04-27T07:59:51.401Z,37.28
2023-04-27T08:02:20.485Z,36.58
2023-04-27T08:04:49.659Z,38.17
2023-04-27T08:07:19.472Z,34.28
2023-04-27T08:09:48.218Z,35.28
2023-04-27T08:12:16.860Z,37.28
2023-04-27T08:14:46.986Z,28.52
2023-04-27T08:17:15.631Z,34.20
2023-04-27T08:19:43.900Z,29.60
2023-04-27T08:22:12.351Z,31.08
2023-04-27T08:24:40.924Z,33.40
2023-04-27T08:27:09.796Z,35.03
2023-04-27T08:29:38.996Z,29.33
2023-04-27T08:32:09.680Z,32.22
2023-04-27T08:34:39.505Z,31.02
2023-04-27T08:37:08.703Z,34.13
2023-04-27T08:39:36.972Z,29.90
2023-04-27T08:42:12.984Z,37.13
2023-04-27T08:44:41.497Z,33.50
2023-04-27T08:47:13.497Z,31.00
2023-04-27T08:49:43.028Z,36.05
2023-04-27T08:52:16.139Z,31.33
2023-04-27T08:54:45.346Z,34.13
2023-04-27T08:57:15.642Z,30.75
2023-04-27T08:59:45.987Z,31.25
2023-04-27T09:02:23.099Z,32.45
2023-04-27T09:04:52.813Z,30.35
2023-04-27T09:07:21.462Z,30.15
2023-04-27T09:09:50.054Z,31.00
2023-04-27T09:12:19.712Z,37.53
2023-04-27T09:14:59.031Z,31.80
2023-04-27T09:17:30.929Z,42.42
2023-04-27T09:20:09.170Z,41.25
2023-04-27T09:22:48.137Z,33.53
2023-04-27T09:25:27.840Z,30.90
2023-04-27T09:27:56.526Z,37.80
2023-04-27T09:30:25.104Z,37.78
2023-04-27T09:32:57.359Z,36.97
2023-04-27T09:35:27.716Z,30.08
2023-04-27T09:37:57.513Z,35.90
2023-04-27T09:40:29.800Z,33.45
2023-04-27T09:43:01.388Z,33.70
2023-04-27T09:45:30.837Z,30.25
2023-04-27T09:48:03.089Z,29.50
2023-04-27T09:50:32.431Z,27.50
2023-04-27T09:53:00.831Z,28.13
2023-04-27T09:55:36.078Z,21.92
2023-04-27T09:58:22.686Z,20.73
2023-04-27T10:01:01.861Z,22.02
2023-04-27T10:03:39.663Z,25.25
2023-04-27T10:06:44.379Z,27.73
2023-04-27T10:09:15.006Z,25.50
2023-04-27T10:11:45.972Z,33.17
2023-04-27T10:14:20.757Z,31.10
2023-04-27T10:16:52.421Z,33.53
2023-04-27T10:19:23.684Z,35.00
2023-04-27T10:21:54.745Z,35.45
2023-04-27T10:24:34.051Z,35.15
2023-04-27T10:27:06.005Z,35.17
2023-04-27T10:29:39.130Z,40.80
2023-04-27T10:32:09.669Z,40.05
2023-04-27T10:34:41.485Z,40.88
2023-04-27T10:37:12.235Z,42.72
2023-04-27T10:39:48.574Z,37.72
2023-04-27T10:42:29.837Z,37.28
2023-04-27T10:44:59.926Z,37.10
2023-04-27T10:47:39.598Z,38.50
2023-04-27T10:50:13.621Z,31.85
2023-04-27T10:52:43.484Z,36.78
2023-04-27T10:55:17.016Z,30.70
2023-04-27T10:57:53.821Z,39.45
2023-04-27T11:00:27.399Z,42.28
2023-04-27T11:02:59.113Z,34.40
2023-04-27T11:05:33.031Z,39.30
2023-04-27T11:08:09.284Z,38.72
2023-04-27T11:10:41.503Z,33.55
2023-04-27T11:13:12.536Z,34.92
2023-04-27T11:15:49.321Z,31.75
2023-04-27T11:18:20.009Z,31.10
2023-04-27T11:20:51.708Z,32.30
2023-04-27T11:23:26.932Z,28.52
2023-04-27T11:25:55.605Z,28.02
2023-04-27T11:28:24.757Z,24.55
2023-04-27T11:30:59.213Z,26.75
2023-04-27T11:33:28.493Z,21.80
2023-04-27T11:35:58.938Z,20.30
2023-04-27T11:38:34.442Z,20.30
2023-04-27T11:41:05.526Z,22.25
2023-04-27T11:43:36.506Z,25.13
2023-04-27T11:46:06.213Z,18.75
2023-04-27T11:48:35.439Z,20.35
2023-04-27T11:51:06.571Z,24.90
2023-04-27T11:53:37.242Z,26.42
2023-04-27T11:56:08.237Z,20.90
2023-04-27T11:58:37.640Z,21.52
2023-04-27T12:01:06.697Z,21.92
2023-04-27T12:03:35.806Z,22.88
2023-04-27T12:08:38.217Z,20.40
2023-04-27T12:11:06.617Z,19.00
2023-04-27T12:13:35.223Z,18.92
2023-04-27T12:16:03.577Z,17.92
2023-04-27T12:18:32.461Z,17.00
2023-04-27T12:21:03.125Z,18.17
2023-04-27T12:23:33.822Z,19.10
2023-04-27T12:26:02.291Z,17.13
2023-04-27T12:28:30.942Z,15.43
2023-04-27T12:30:59.650Z,17.13
2023-04-27T12:33:28.130Z,17.85
2023-04-27T12:35:56.914Z,19.83
2023-04-27T12:38:25.716Z,20.33
2023-04-27T12:40:56.388Z,21.17
2023-04-27T12:43:24.881Z,19.98
2023-04-27T12:45:53.599Z,20.88
2023-04-27T12:48:23.424Z,19.15
2023-04-27T12:50:51.975Z,23.20
2023-04-27T12:53:22.203Z,19.70
2023-04-27T12:55:50.719Z,20.55
2023-04-27T12:58:20.583Z,23.60
2023-04-27T13:00:49.127Z,22.23
2023-04-27T13:03:18.022Z,28.90
2023-04-27T13:05:46.599Z,25.80
2023-04-27T13:08:15.116Z,30.30
2023-04-27T13:10:43.867Z,33.65
2023-04-27T13:13:12.500Z,31.30
2023-04-27T13:15:42.369Z,32.28
2023-04-27T13:18:10.887Z,31.52
2023-04-27T13:20:39.324Z,33.95
2023-04-27T13:23:08.232Z,37.90
2023-04-27T13:25:36.927Z,32.72
2023-04-27T13:28:05.746Z,34.05
2023-04-27T13:30:34.515Z,35.60
2023-04-27T13:33:18.568Z,34.92
2023-04-27T13:35:50.273Z,31.05
2023-04-27T13:38:18.640Z,36.22
2023-04-27T13:40:46.951Z,27.33
2023-04-27T13:43:16.585Z,26.27
2023-04-27T13:45:45.568Z,30.17
2023-04-27T13:48:15.553Z,28.83
2023-04-27T13:50:45.359Z,29.40
2023-04-27T13:53:14.351Z,27.35
2023-04-27T13:55:43.805Z,27.42
2023-04-27T13:58:13.428Z,24.58
2023-04-27T14:00:42.370Z,25.92
2023-04-27T14:03:11.342Z,24.40
2023-04-27T14:05:41.387Z,23.60
2023-04-27T14:08:09.664Z,18.88
2023-04-27T14:10:38.506Z,20.42
2023-04-27T14:13:08.032Z,22.38
2023-04-27T14:15:37.859Z,25.85
2023-04-27T14:18:08.036Z,30.23
2023-04-27T14:20:36.950Z,28.23
2023-04-27T14:23:07.993Z,28.25
2023-04-27T14:25:36.539Z,29.35
2023-04-27T14:28:07.099Z,29.70
2023-04-27T14:30:36.564Z,32.53
2023-04-27T14:33:05.046Z,32.10
2023-04-27T14:35:36.422Z,26.85
2023-04-27T14:38:05.031Z,23.75
2023-04-27T14:40:35.029Z,33.33
2023-04-27T14:43:03.446Z,38.83
2023-04-27T14:45:43.600Z,36.28
2023-04-27T14:48:12.641Z,38.78
2023-04-27T14:50:41.666Z,38.08
2023-04-27T14:53:10.523Z,35.30
2023-04-27T14:55:41.443Z,31.30
2023-04-27T14:58:09.986Z,30.50
2023-04-27T15:00:38.444Z,32.97
2023-04-27T15:03:07.471Z,32.65
2023-04-27T15:05:37.689Z,30.38
2023-04-27T15:08:06.502Z,29.15
2023-04-27T15:10:35.585Z,29.48
2023-04-27T15:13:06.643Z,29.48
2023-04-27T15:15:35.865Z,28.60
2023-04-27T15:18:04.419Z,36.38
2023-04-27T15:20:33.886Z,30.52
2023-04-27T15:23:02.749Z,32.17
2023-04-27T15:25:36.823Z,32.10
2023-04-27T15:28:07.074Z,35.67
2023-04-27T15:30:36.294Z,35.72
2023-04-27T15:33:04.904Z,35.25
2023-04-27T15:35:34.124Z,39.55
2023-04-27T15:38:02.902Z,43.55
2023-04-27T15:40:31.345Z,43.50
2023-04-27T15:43:00.009Z,36.83
2023-04-27T15:45:30.987Z,38.72
2023-04-27T15:47:59.793Z,36.17
2023-04-27T15:50:28.618Z,40.88
2023-04-27T15:52:57.361Z,41.72
2023-04-27T15:55:26.147Z,44.95
2023-04-27T15:57:55.598Z,36.90
2023-04-27T16:00:24.875Z,38.88
2023-04-27T16:02:55.309Z,40.25
2023-04-27T16:05:23.993Z,35.20
2023-04-27T16:07:52.645Z,36.95
2023-04-27T16:10:21.114Z,34.33
2023-04-27T16:12:51.272Z,28.67
2023-04-27T16:15:20.149Z,28.95
2023-04-27T16:17:48.682Z,28.88
2023-04-27T16:20:19.010Z,27.45
2023-04-27T16:22:47.649Z,26.77
2023-04-27T16:25:17.561Z,26.98
2023-04-27T16:27:45.849Z,26.30
2023-04-27T16:30:15.361Z,32.30
2023-04-27T16:32:44.825Z,23.00
2023-04-27T16:35:13.120Z,25.77
2023-04-27T16:37:43.505Z,30.90
2023-04-27T16:40:12.899Z,25.15
2023-04-27T16:42:44.629Z,27.73
2023-04-27T16:45:14.403Z,30.65
2023-04-27T16:47:42.932Z,26.77
2023-04-27T16:50:13.094Z,31.13
2023-04-27T16:52:44.690Z,29.20
2023-04-27T16:55:13.132Z,30.33
2023-04-27T16:57:41.895Z,27.38
2023-04-27T17:00:12.465Z,32.17
2023-04-27T17:02:43.914Z,29.45
2023-04-27T17:05:13.420Z,35.10
2023-04-27T17:07:52.049Z,31.45
2023-04-27T17:10:20.716Z,31.48
2023-04-27T17:12:56.599Z,32.60
2023-04-27T17:15:36.267Z,33.50
2023-04-27T17:18:10.664Z,30.27
2023-04-27T17:20:42.308Z,35.92
2023-04-27T17:23:12.331Z,32.30
2023-04-27T17:25:49.355Z,33.90
2023-04-27T17:28:18.199Z,35.15
2023-04-27T17:30:47.261Z,32.30
2023-04-27T17:33:18.736Z,28.25
2023-04-27T17:35:50.182Z,32.92
2023-04-27T17:38:37.612Z,28.15
2023-04-27T17:41:18.098Z,29.77
2023-04-27T17:43:56.830Z,28.42
2023-04-27T17:46:26.431Z,33.55
2023-04-27T17:49:13.273Z,38.45
2023-04-27T17:51:42.195Z,34.95
2023-04-27T17:54:14.574Z,37.60
2023-04-27T17:56:51.552Z,36.38
2023-04-27T17:59:24.994Z,37.50
2023-04-27T18:01:55.881Z,38.08
2023-04-27T18:04:32.464Z,42.33
2023-04-27T18:07:02.075Z,43.47
2023-04-27T18:09:33.154Z,35.30
2023-04-27T18:12:21.629Z,43.78
2023-04-27T18:14:51.613Z,38.05
2023-04-27T18:17:22.727Z,41.42
2023-04-27T18:20:09.629Z,38.17
2023-04-27T18:22:57.415Z,40.67
2023-04-27T18:25:33.452Z,41.55
2023-04-27T18:28:02.914Z,40.35
2023-04-27T18:30:33.693Z,37.60
2023-04-27T18:33:02.280Z,37.28
2023-04-27T18:35:30.797Z,39.50
2023-04-27T18:38:00.315Z,33.95
2023-04-27T18:40:28.807Z,36.45
2023-04-27T18:42:58.779Z,36.92
2023-04-27T18:45:28.293Z,40.15
2023-04-27T18:47:57.971Z,39.33
2023-04-27T18:50:29.054Z,37.35
2023-04-27T18:52:57.543Z,39.78
2023-04-27T18:55:26.307Z,41.42
2023-04-27T18:57:54.768Z,35.33
2023-04-27T19:00:25.064Z,39.95
2023-04-27T19:02:53.591Z,38.40
2023-04-27T19:05:22.253Z,37.35
2023-04-27T19:07:50.835Z,39.10
2023-04-27T19:10:19.497Z,40.47
2023-04-27T19:12:47.974Z,39.60
2023-04-27T19:15:16.684Z,35.40
2023-04-27T19:17:48.776Z,35.58
2023-04-27T19:20:21.781Z,35.13
2023-04-27T19:22:52.356Z,37.70
2023-04-27T19:25:23.254Z,36.83
2023-04-27T19:27:51.860Z,36.22
2023-04-27T19:42:03.218Z,35.72
2023-04-27T19:44:32.942Z,34.72
2023-04-27T19:47:01.457Z,35.20
2023-04-27T19:49:34.141Z,36.55
2023-04-27T19:52:02.751Z,35.05
2023-04-27T19:54:31.603Z,34.40
2023-04-27T19:57:03.477Z,39.40
2023-04-27T19:59:32.307Z,35.95
2023-04-27T20:02:02.466Z,35.92
2023-04-27T20:04:33.350Z,33.13
2023-04-27T20:07:03.770Z,36.97
2023-04-27T20:09:33.930Z,38.08
2023-04-27T20:12:04.003Z,38.65
2023-04-27T20:14:35.743Z,35.78
2023-04-27T20:17:05.248Z,35.40
2023-04-27T20:19:35.265Z,37.08
2023-04-27T20:22:03.553Z,41.67
2023-04-27T20:24:31.998Z,38.78
2023-04-27T20:27:00.670Z,38.65
2023-04-27T20:29:30.778Z,41.80
2023-04-27T20:31:59.152Z,42.50
2023-04-27T20:34:28.029Z,39.95
2023-04-27T20:36:58.479Z,40.25
2023-04-27T20:39:27.005Z,41.28
2023-04-27T20:41:56.737Z,38.63
2023-04-27T20:44:25.184Z,38.40
2023-04-27T20:46:55.483Z,38.83
2023-04-27T20:49:31.998Z,37.00
2023-04-27T20:52:03.776Z,34.03
2023-04-27T20:54:33.055Z,39.38
2023-04-27T20:57:04.027Z,41.65
2023-04-27T20:59:32.245Z,39.47
2023-04-27T21:02:02.145Z,36.90
2023-04-27T21:04:30.782Z,40.17
2023-04-27T21:07:00.202Z,35.42
2023-04-27T21:09:29.189Z,41.88
2023-04-27T21:11:57.645Z,39.90
2023-04-27T21:14:28.583Z,40.25
2023-04-27T21:17:01.826Z,43.42
2023-04-27T21:19:30.520Z,43.85
2023-04-27T21:21:58.931Z,41.97
2023-04-27T21:24:28.480Z,43.25
2023-04-27T21:26:58.011Z,42.10
2023-04-27T21:29:26.670Z,43.42
2023-04-27T21:31:55.248Z,46.08
2023-04-27T21:34:25.600Z,44.53
2023-04-27T21:36:54.256Z,49.30
2023-04-27T21:39:22.940Z,46.83
2023-04-27T21:41:51.445Z,51.15
2023-04-27T21:44:21.478Z,53.60
2023-04-27T21:46:50.273Z,49.85
2023-04-27T21:49:19.004Z,50.42
2023-04-27T21:51:50.252Z,55.38
2023-04-27T21:54:18.626Z,58.65
2023-04-27T21:56:47.135Z,53.75
2023-04-27T21:59:16.000Z,54.78
2023-04-27T22:01:45.316Z,59.15
2023-04-27T22:04:17.065Z,54.20
2023-04-27T22:06:45.924Z,59.15
2023-04-27T22:09:16.719Z,52.47
2023-04-27T22:11:45.311Z,55.78
2023-04-27T22:14:14.109Z,56.03
2023-04-27T22:16:43.176Z,56.17
2023-04-27T22:19:12.907Z,59.97
2023-04-27T22:21:43.460Z,57.22
2023-04-27T22:24:11.907Z,53.08
2023-04-27T22:26:42.117Z,56.25
2023-04-27T22:29:10.685Z,52.05
2023-04-27T22:31:40.356Z,53.65
2023-04-27T22:34:09.372Z,52.75
2023-04-27T22:36:39.561Z,54.63
2023-04-27T22:39:09.184Z,57.70
2023-04-27T22:41:38.937Z,52.00
2023-04-27T22:44:09.130Z,53.97
2023-04-27T22:46:37.735Z,54.67
2023-04-27T22:49:08.552Z,56.83
2023-04-27T22:51:37.579Z,52.05
2023-04-27T22:54:06.107Z,56.22
2023-04-27T22:56:34.671Z,53.97
2023-04-27T22:59:03.159Z,57.80
2023-04-27T23:01:33.001Z,52.97
2023-04-27T23:04:03.390Z,57.80
2023-04-27T23:06:32.266Z,60.60
2023-04-27T23:09:01.910Z,64.03
2023-04-27T23:11:31.358Z,55.38
2023-04-27T23:13:59.841Z,62.80
2023-04-27T23:16:30.197Z,60.38
2023-04-27T23:19:00.140Z,57.20
2023-04-27T23:21:29.903Z,57.50
2023-04-27T23:24:02.257Z,62.33
2023-04-27T23:26:31.473Z,62.05
2023-04-27T23:29:00.941Z,56.50
2023-04-27T23:31:30.447Z,58.28
2023-04-27T23:34:01.912Z,54.35
2023-04-27T23:36:31.724Z,55.13
2023-04-27T23:39:00.137Z,52.60
2023-04-27T23:41:28.655Z,50.28
2023-04-27T23:43:57.802Z,58.53
2023-04-27T23:46:26.763Z,54.65
2023-04-27T23:48:56.233Z,56.13
2023-04-27T23:51:26.251Z,52.60
2023-04-27T23:53:54.527Z,46.88
2023-04-27T23:56:24.594Z,49.70
2023-04-27T23:58:53.230Z,46.22
